sensor_id;sensor_type;location;lat;lon;timestamp;P1;durP1;ratioP1;P2;durP2;ratioP2
42886;SDS011;29032;56.028;92.904;2023-03-01T00:02:55;3.20;;;1.83;;
42886;SDS011;29032;56.028;92.904;2023-03-01T00:07:59;2.70;;;1.97;;
42886;SDS011;29032;56.028;92.904;2023-03-01T00:13:01;4.30;;;2.37;;
42886;SDS011;29032;56.028;92.904;2023-03-01T00:18:03;4.67;;;2.40;;
42886;SDS011;29032;56.028;92.904;2023-03-01T00:23:07;4.13;;;2.03;;
42886;SDS011;29032;56.028;92.904;2023-03-01T00:28:09;9.30;;;2.67;;
42886;SDS011;29032;56.028;92.904;2023-03-01T00:33:11;7.13;;;3.60;;
42886;SDS011;29032;56.028;92.904;2023-03-01T00:38:15;9.13;;;3.90;;
42886;SDS011;29032;56.028;92.904;2023-03-01T00:43:17;4.83;;;2.70;;
42886;SDS011;29032;56.028;92.904;2023-03-01T00:48:20;5.43;;;3.10;;
42886;SDS011;29032;56.028;92.904;2023-03-01T00:53:23;7.67;;;4.03;;
42886;SDS011;29032;56.028;92.904;2023-03-01T00:58:25;7.40;;;3.20;;
42886;SDS011;29032;56.028;92.904;2023-03-01T01:03:28;5.27;;;3.93;;
42886;SDS011;29032;56.028;92.904;2023-03-01T01:08:31;5.37;;;3.13;;
42886;SDS011;29032;56.028;92.904;2023-03-01T01:13:34;8.43;;;3.60;;
42886;SDS011;29032;56.028;92.904;2023-03-01T01:18:36;5.00;;;3.20;;
42886;SDS011;29032;56.028;92.904;2023-03-01T01:23:40;8.97;;;4.60;;
42886;SDS011;29032;56.028;92.904;2023-03-01T01:28:43;8.73;;;4.00;;
42886;SDS011;29032;56.028;92.904;2023-03-01T01:33:45;8.73;;;4.13;;
42886;SDS011;29032;56.028;92.904;2023-03-01T01:38:49;8.73;;;4.00;;
42886;SDS011;29032;56.028;92.904;2023-03-01T01:49:16;8.93;;;4.43;;
42886;SDS011;29032;56.028;92.904;2023-03-01T01:54:26;11.43;;;4.57;;
42886;SDS011;29032;56.028;92.904;2023-03-01T01:59:32;8.00;;;4.30;;
42886;SDS011;29032;56.028;92.904;2023-03-01T02:04:36;8.77;;;4.43;;
42886;SDS011;29032;56.028;92.904;2023-03-01T02:09:39;8.50;;;4.17;;
42886;SDS011;29032;56.028;92.904;2023-03-01T02:14:43;9.83;;;4.13;;
42886;SDS011;29032;56.028;92.904;2023-03-01T02:19:49;8.20;;;4.30;;
42886;SDS011;29032;56.028;92.904;2023-03-01T02:25:07;6.80;;;3.90;;
42886;SDS011;29032;56.028;92.904;2023-03-01T02:30:18;4.00;;;3.20;;
42886;SDS011;29032;56.028;92.904;2023-03-01T02:35:22;8.07;;;4.00;;
42886;SDS011;29032;56.028;92.904;2023-03-01T02:40:24;6.03;;;3.30;;
42886;SDS011;29032;56.028;92.904;2023-03-01T02:45:28;7.83;;;3.83;;
42886;SDS011;29032;56.028;92.904;2023-03-01T02:50:44;6.47;;;3.87;;
42886;SDS011;29032;56.028;92.904;2023-03-01T02:55:54;9.30;;;5.07;;
42886;SDS011;29032;56.028;92.904;2023-03-01T03:00:58;12.93;;;6.80;;
42886;SDS011;29032;56.028;92.904;2023-03-01T03:06:01;16.87;;;7.00;;
42886;SDS011;29032;56.028;92.904;2023-03-01T03:11:05;13.40;;;7.77;;
42886;SDS011;29032;56.028;92.904;2023-03-01T03:16:09;14.27;;;6.90;;
42886;SDS011;29032;56.028;92.904;2023-03-01T03:21:12;11.80;;;7.23;;
42886;SDS011;29032;56.028;92.904;2023-03-01T03:26:14;17.13;;;7.97;;
42886;SDS011;29032;56.028;92.904;2023-03-01T03:31:18;19.17;;;9.77;;
42886;SDS011;29032;56.028;92.904;2023-03-01T03:36:20;18.77;;;10.47;;
42886;SDS011;29032;56.028;92.904;2023-03-01T03:41:24;20.07;;;10.17;;
42886;SDS011;29032;56.028;92.904;2023-03-01T03:46:27;17.27;;;9.87;;
42886;SDS011;29032;56.028;92.904;2023-03-01T03:51:30;18.37;;;10.60;;
42886;SDS011;29032;56.028;92.904;2023-03-01T03:56:32;16.83;;;10.73;;
42886;SDS011;29032;56.028;92.904;2023-03-01T04:01:35;26.97;;;15.60;;
42886;SDS011;29032;56.028;92.904;2023-03-01T04:06:37;29.10;;;14.10;;
42886;SDS011;29032;56.028;92.904;2023-03-01T04:11:39;23.13;;;13.80;;
42886;SDS011;29032;56.028;92.904;2023-03-01T04:16:43;20.43;;;11.77;;
42886;SDS011;29032;56.028;92.904;2023-03-01T04:21:45;21.93;;;12.03;;
42886;SDS011;29032;56.028;92.904;2023-03-01T04:26:47;27.80;;;13.23;;
42886;SDS011;29032;56.028;92.904;2023-03-01T04:31:51;20.10;;;10.93;;
42886;SDS011;29032;56.028;92.904;2023-03-01T04:36:53;26.90;;;14.20;;
42886;SDS011;29032;56.028;92.904;2023-03-01T04:41:55;28.47;;;15.70;;
42886;SDS011;29032;56.028;92.904;2023-03-01T04:46:58;32.60;;;16.03;;
42886;SDS011;29032;56.028;92.904;2023-03-01T04:52:00;30.17;;;15.20;;
42886;SDS011;29032;56.028;92.904;2023-03-01T04:57:03;31.73;;;17.13;;
42886;SDS011;29032;56.028;92.904;2023-03-01T05:02:08;24.17;;;11.93;;
42886;SDS011;29032;56.028;92.904;2023-03-01T05:24:48;9.20;;;5.33;;
42886;SDS011;29032;56.028;92.904;2023-03-01T05:29:55;7.13;;;4.10;;
42886;SDS011;29032;56.028;92.904;2023-03-01T05:34:57;8.13;;;4.57;;
42886;SDS011;29032;56.028;92.904;2023-03-01T05:40:00;7.67;;;4.60;;
42886;SDS011;29032;56.028;92.904;2023-03-01T05:45:03;5.60;;;4.23;;
42886;SDS011;29032;56.028;92.904;2023-03-01T05:50:05;4.53;;;3.30;;
42886;SDS011;29032;56.028;92.904;2023-03-01T05:55:10;5.10;;;3.20;;
42886;SDS011;29032;56.028;92.904;2023-03-01T06:00:12;5.33;;;2.90;;
42886;SDS011;29032;56.028;92.904;2023-03-01T06:05:16;5.43;;;2.80;;
42886;SDS011;29032;56.028;92.904;2023-03-01T06:10:21;6.30;;;3.60;;
42886;SDS011;29032;56.028;92.904;2023-03-01T06:15:23;6.23;;;3.93;;
42886;SDS011;29032;56.028;92.904;2023-03-01T06:20:26;6.70;;;3.50;;
42886;SDS011;29032;56.028;92.904;2023-03-01T06:25:31;6.27;;;3.77;;
42886;SDS011;29032;56.028;92.904;2023-03-01T06:30:33;9.10;;;4.00;;
42886;SDS011;29032;56.028;92.904;2023-03-01T06:35:35;4.90;;;3.33;;
42886;SDS011;29032;56.028;92.904;2023-03-01T06:40:39;4.77;;;3.10;;
42886;SDS011;29032;56.028;92.904;2023-03-01T06:45:41;5.57;;;3.63;;
42886;SDS011;29032;56.028;92.904;2023-03-01T06:50:44;6.97;;;3.57;;
42886;SDS011;29032;56.028;92.904;2023-03-01T06:55:47;5.63;;;3.50;;
42886;SDS011;29032;56.028;92.904;2023-03-01T07:00:54;11.20;;;5.57;;
42886;SDS011;29032;56.028;92.904;2023-03-01T07:05:56;9.33;;;4.93;;
42886;SDS011;29032;56.028;92.904;2023-03-01T07:11:00;9.00;;;5.00;;
42886;SDS011;29032;56.028;92.904;2023-03-01T07:16:02;8.53;;;4.73;;
42886;SDS011;29032;56.028;92.904;2023-03-01T07:21:05;5.37;;;3.27;;
42886;SDS011;29032;56.028;92.904;2023-03-01T07:26:09;5.80;;;2.70;;
42886;SDS011;29032;56.028;92.904;2023-03-01T07:31:11;3.97;;;2.40;;
42886;SDS011;29032;56.028;92.904;2023-03-01T07:36:13;4.33;;;2.70;;
42886;SDS011;29032;56.028;92.904;2023-03-01T07:41:17;4.40;;;3.03;;
42886;SDS011;29032;56.028;92.904;2023-03-01T07:46:19;3.30;;;2.47;;
42886;SDS011;29032;56.028;92.904;2023-03-01T07:51:21;4.20;;;2.47;;
42886;SDS011;29032;56.028;92.904;2023-03-01T07:56:26;4.87;;;2.60;;
42886;SDS011;29032;56.028;92.904;2023-03-01T08:01:28;2.87;;;2.33;;
42886;SDS011;29032;56.028;92.904;2023-03-01T08:06:30;3.77;;;2.17;;
42886;SDS011;29032;56.028;92.904;2023-03-01T08:11:36;3.27;;;2.27;;
42886;SDS011;29032;56.028;92.904;2023-03-01T08:16:38;6.43;;;2.83;;
42886;SDS011;29032;56.028;92.904;2023-03-01T08:21:40;5.17;;;3.07;;
42886;SDS011;29032;56.028;92.904;2023-03-01T08:26:44;3.83;;;2.80;;
42886;SDS011;29032;56.028;92.904;2023-03-01T08:31:46;5.20;;;3.60;;
42886;SDS011;29032;56.028;92.904;2023-03-01T08:36:48;6.00;;;3.40;;
42886;SDS011;29032;56.028;92.904;2023-03-01T08:41:52;6.70;;;4.27;;
42886;SDS011;29032;56.028;92.904;2023-03-01T08:46:54;5.80;;;3.30;;
42886;SDS011;29032;56.028;92.904;2023-03-01T08:51:56;9.03;;;4.77;;
42886;SDS011;29032;56.028;92.904;2023-03-01T08:57:00;7.10;;;4.50;;
42886;SDS011;29032;56.028;92.904;2023-03-01T09:02:03;7.10;;;4.03;;
42886;SDS011;29032;56.028;92.904;2023-03-01T09:07:05;7.77;;;5.30;;
42886;SDS011;29032;56.028;92.904;2023-03-01T09:12:09;12.37;;;5.70;;
42886;SDS011;29032;56.028;92.904;2023-03-01T09:17:11;11.63;;;6.40;;
42886;SDS011;29032;56.028;92.904;2023-03-01T09:22:13;9.63;;;5.87;;
42886;SDS011;29032;56.028;92.904;2023-03-01T09:27:16;11.10;;;6.83;;
42886;SDS011;29032;56.028;92.904;2023-03-01T09:32:18;14.13;;;7.47;;
42886;SDS011;29032;56.028;92.904;2023-03-01T09:37:21;19.97;;;11.00;;
42886;SDS011;29032;56.028;92.904;2023-03-01T09:42:24;20.33;;;10.33;;
42886;SDS011;29032;56.028;92.904;2023-03-01T09:47:29;17.13;;;10.20;;
42886;SDS011;29032;56.028;92.904;2023-03-01T09:52:36;14.37;;;9.50;;
42886;SDS011;29032;56.028;92.904;2023-03-01T09:57:46;17.30;;;9.00;;
42886;SDS011;29032;56.028;92.904;2023-03-01T10:02:51;14.63;;;8.93;;
42886;SDS011;29032;56.028;92.904;2023-03-01T10:08:02;9.67;;;7.23;;
42886;SDS011;29032;56.028;92.904;2023-03-01T10:13:24;10.57;;;5.83;;
42886;SDS011;29032;56.028;92.904;2023-03-01T10:18:30;9.07;;;5.00;;
42886;SDS011;29032;56.028;92.904;2023-03-01T10:23:35;8.47;;;5.83;;
42886;SDS011;29032;56.028;92.904;2023-03-01T10:28:42;8.40;;;4.93;;
42886;SDS011;29032;56.028;92.904;2023-03-01T10:33:53;10.30;;;5.57;;
42886;SDS011;29032;56.028;92.904;2023-03-01T10:38:56;7.90;;;5.80;;
42886;SDS011;29032;56.028;92.904;2023-03-01T10:44:00;13.53;;;7.40;;
42886;SDS011;29032;56.028;92.904;2023-03-01T10:49:06;11.37;;;7.03;;
42886;SDS011;29032;56.028;92.904;2023-03-01T10:54:17;11.40;;;7.50;;
42886;SDS011;29032;56.028;92.904;2023-03-01T10:59:27;13.90;;;7.90;;
42886;SDS011;29032;56.028;92.904;2023-03-01T11:04:31;12.83;;;8.50;;
42886;SDS011;29032;56.028;92.904;2023-03-01T11:09:33;14.73;;;8.73;;
42886;SDS011;29032;56.028;92.904;2023-03-01T11:14:37;13.20;;;9.17;;
42886;SDS011;29032;56.028;92.904;2023-03-01T11:19:52;16.93;;;9.53;;
42886;SDS011;29032;56.028;92.904;2023-03-01T11:25:02;15.17;;;9.63;;
42886;SDS011;29032;56.028;92.904;2023-03-01T11:30:09;14.27;;;9.77;;
42886;SDS011;29032;56.028;92.904;2023-03-01T11:35:21;17.27;;;10.27;;
42886;SDS011;29032;56.028;92.904;2023-03-01T11:40:25;17.93;;;10.53;;
42886;SDS011;29032;56.028;92.904;2023-03-01T11:45:33;16.40;;;10.63;;
42886;SDS011;29032;56.028;92.904;2023-03-01T11:50:44;16.67;;;10.00;;
42886;SDS011;29032;56.028;92.904;2023-03-01T11:55:57;14.37;;;9.27;;
42886;SDS011;29032;56.028;92.904;2023-03-01T12:01:11;19.30;;;10.80;;
42886;SDS011;29032;56.028;92.904;2023-03-01T12:12:07;20.80;;;11.27;;
42886;SDS011;29032;56.028;92.904;2023-03-01T12:17:36;16.27;;;8.30;;
42886;SDS011;29032;56.028;92.904;2023-03-01T12:22:55;14.00;;;8.97;;
42886;SDS011;29032;56.028;92.904;2023-03-01T12:28:19;10.87;;;7.57;;
42886;SDS011;29032;56.028;92.904;2023-03-01T12:33:41;10.93;;;8.27;;
42886;SDS011;29032;56.028;92.904;2023-03-01T12:38:56;14.43;;;8.23;;
42886;SDS011;29032;56.028;92.904;2023-03-01T12:44:09;14.40;;;9.00;;
42886;SDS011;29032;56.028;92.904;2023-03-01T12:49:23;11.87;;;8.40;;
42886;SDS011;29032;56.028;92.904;2023-03-01T12:54:30;11.33;;;7.67;;
42886;SDS011;29032;56.028;92.904;2023-03-01T12:59:35;14.97;;;8.80;;
42886;SDS011;29032;56.028;92.904;2023-03-01T13:04:50;13.73;;;8.10;;
42886;SDS011;29032;56.028;92.904;2023-03-01T13:10:16;17.00;;;9.50;;
42886;SDS011;29032;56.028;92.904;2023-03-01T13:15:25;17.40;;;10.70;;
42886;SDS011;29032;56.028;92.904;2023-03-01T13:20:34;16.03;;;10.50;;
42886;SDS011;29032;56.028;92.904;2023-03-01T13:31:54;17.67;;;9.87;;
42886;SDS011;29032;56.028;92.904;2023-03-01T13:37:17;14.37;;;7.97;;
42886;SDS011;29032;56.028;92.904;2023-03-01T13:47:52;9.13;;;5.10;;
42886;SDS011;29032;56.028;92.904;2023-03-01T13:52:59;9.10;;;5.03;;
42886;SDS011;29032;56.028;92.904;2023-03-01T13:58:05;6.87;;;4.20;;
42886;SDS011;29032;56.028;92.904;2023-03-01T14:03:18;7.33;;;4.73;;
42886;SDS011;29032;56.028;92.904;2023-03-01T14:08:24;5.10;;;3.53;;
42886;SDS011;29032;56.028;92.904;2023-03-01T14:13:33;6.78;;;4.40;;
42886;SDS011;29032;56.028;92.904;2023-03-01T14:18:51;6.67;;;3.93;;
42886;SDS011;29032;56.028;92.904;2023-03-01T14:24:03;6.57;;;3.40;;
42886;SDS011;29032;56.028;92.904;2023-03-01T14:29:06;8.13;;;4.33;;
42886;SDS011;29032;56.028;92.904;2023-03-01T14:34:24;5.20;;;3.47;;
42886;SDS011;29032;56.028;92.904;2023-03-01T14:39:28;5.27;;;3.87;;
42886;SDS011;29032;56.028;92.904;2023-03-01T14:44:30;5.17;;;3.20;;
42886;SDS011;29032;56.028;92.904;2023-03-01T14:49:33;5.53;;;3.10;;
42886;SDS011;29032;56.028;92.904;2023-03-01T14:54:39;3.93;;;2.67;;
42886;SDS011;29032;56.028;92.904;2023-03-01T14:59:43;4.00;;;2.80;;
42886;SDS011;29032;56.028;92.904;2023-03-01T15:04:46;3.10;;;2.43;;
42886;SDS011;29032;56.028;92.904;2023-03-01T15:09:52;3.47;;;2.50;;
42886;SDS011;29032;56.028;92.904;2023-03-01T15:14:54;3.77;;;3.00;;
42886;SDS011;29032;56.028;92.904;2023-03-01T15:19:57;5.80;;;2.40;;
42886;SDS011;29032;56.028;92.904;2023-03-01T15:25:01;3.33;;;2.50;;
42886;SDS011;29032;56.028;92.904;2023-03-01T15:30:04;4.50;;;2.57;;
42886;SDS011;29032;56.028;92.904;2023-03-01T15:40:50;3.70;;;2.57;;
42886;SDS011;29032;56.028;92.904;2023-03-01T15:45:55;3.63;;;2.80;;
42886;SDS011;29032;56.028;92.904;2023-03-01T15:50:58;5.53;;;2.30;;
42886;SDS011;29032;56.028;92.904;2023-03-01T15:56:03;5.10;;;2.67;;
42886;SDS011;29032;56.028;92.904;2023-03-01T16:01:08;3.00;;;2.70;;
42886;SDS011;29032;56.028;92.904;2023-03-01T16:06:13;3.43;;;2.63;;
42886;SDS011;29032;56.028;92.904;2023-03-01T16:11:17;3.90;;;2.70;;
42886;SDS011;29032;56.028;92.904;2023-03-01T16:16:21;3.70;;;3.00;;
42886;SDS011;29032;56.028;92.904;2023-03-01T16:21:24;3.90;;;2.83;;
42886;SDS011;29032;56.028;92.904;2023-03-01T16:26:27;7.10;;;3.97;;
42886;SDS011;29032;56.028;92.904;2023-03-01T16:31:30;4.73;;;3.30;;
42886;SDS011;29032;56.028;92.904;2023-03-01T16:36:32;5.97;;;3.27;;
42886;SDS011;29032;56.028;92.904;2023-03-01T16:41:35;6.30;;;3.50;;
42886;SDS011;29032;56.028;92.904;2023-03-01T16:52:53;4.50;;;2.33;;
42886;SDS011;29032;56.028;92.904;2023-03-01T16:57:57;2.57;;;2.37;;
42886;SDS011;29032;56.028;92.904;2023-03-01T17:02:59;2.90;;;2.10;;
42886;SDS011;29032;56.028;92.904;2023-03-01T17:08:01;4.50;;;2.40;;
42886;SDS011;29032;56.028;92.904;2023-03-01T17:13:05;2.00;;;1.80;;
42886;SDS011;29032;56.028;92.904;2023-03-01T17:18:07;3.47;;;2.20;;
42886;SDS011;29032;56.028;92.904;2023-03-01T17:23:10;3.80;;;2.07;;
42886;SDS011;29032;56.028;92.904;2023-03-01T17:28:14;6.30;;;3.90;;
42886;SDS011;29032;56.028;92.904;2023-03-01T17:33:16;4.43;;;2.07;;
42886;SDS011;29032;56.028;92.904;2023-03-01T17:38:18;2.40;;;2.13;;
42886;SDS011;29032;56.028;92.904;2023-03-01T17:43:22;3.80;;;2.30;;
42886;SDS011;29032;56.028;92.904;2023-03-01T17:48:25;6.13;;;2.50;;
42886;SDS011;29032;56.028;92.904;2023-03-01T17:53:27;5.77;;;2.87;;
42886;SDS011;29032;56.028;92.904;2023-03-01T17:58:31;5.27;;;2.83;;
42886;SDS011;29032;56.028;92.904;2023-03-01T18:03:34;4.10;;;3.47;;
42886;SDS011;29032;56.028;92.904;2023-03-01T18:08:36;4.70;;;3.00;;
42886;SDS011;29032;56.028;92.904;2023-03-01T18:13:40;3.40;;;2.70;;
42886;SDS011;29032;56.028;92.904;2023-03-01T18:18:42;2.60;;;2.17;;
42886;SDS011;29032;56.028;92.904;2023-03-01T18:23:44;3.43;;;3.10;;
42886;SDS011;29032;56.028;92.904;2023-03-01T18:28:48;3.03;;;2.70;;
42886;SDS011;29032;56.028;92.904;2023-03-01T18:33:52;4.93;;;2.40;;
42886;SDS011;29032;56.028;92.904;2023-03-01T18:38:54;2.20;;;2.00;;
42886;SDS011;29032;56.028;92.904;2023-03-01T18:43:58;3.33;;;2.00;;
42886;SDS011;29032;56.028;92.904;2023-03-01T18:49:01;4.43;;;2.10;;
42886;SDS011;29032;56.028;92.904;2023-03-01T18:54:03;2.03;;;1.87;;
42886;SDS011;29032;56.028;92.904;2023-03-01T18:59:07;3.80;;;1.90;;
42886;SDS011;29032;56.028;92.904;2023-03-01T19:04:09;4.00;;;1.87;;
42886;SDS011;29032;56.028;92.904;2023-03-01T19:09:12;8.70;;;2.20;;
42886;SDS011;29032;56.028;92.904;2023-03-01T19:14:15;3.57;;;1.70;;
42886;SDS011;29032;56.028;92.904;2023-03-01T19:19:18;2.37;;;1.63;;
42886;SDS011;29032;56.028;92.904;2023-03-01T19:24:20;1.40;;;1.30;;
42886;SDS011;29032;56.028;92.904;2023-03-01T19:29:23;3.47;;;1.40;;
42886;SDS011;29032;56.028;92.904;2023-03-01T19:34:25;2.90;;;1.60;;
42886;SDS011;29032;56.028;92.904;2023-03-01T19:39:27;2.67;;;1.27;;
42886;SDS011;29032;56.028;92.904;2023-03-01T19:44:31;4.37;;;1.33;;
42886;SDS011;29032;56.028;92.904;2023-03-01T19:49:33;2.70;;;1.70;;
42886;SDS011;29032;56.028;92.904;2023-03-01T19:54:35;4.07;;;2.20;;
42886;SDS011;29032;56.028;92.904;2023-03-01T19:59:39;2.33;;;1.87;;
42886;SDS011;29032;56.028;92.904;2023-03-01T20:04:41;2.27;;;1.77;;
42886;SDS011;29032;56.028;92.904;2023-03-01T20:09:44;3.17;;;2.03;;
42886;SDS011;29032;56.028;92.904;2023-03-01T20:14:47;3.67;;;2.00;;
42886;SDS011;29032;56.028;92.904;2023-03-01T20:19:49;6.37;;;1.60;;
42886;SDS011;29032;56.028;92.904;2023-03-01T20:24:51;2.90;;;1.50;;
42886;SDS011;29032;56.028;92.904;2023-03-01T20:29:55;5.03;;;1.60;;
42886;SDS011;29032;56.028;92.904;2023-03-01T20:34:57;3.87;;;1.60;;
42886;SDS011;29032;56.028;92.904;2023-03-01T20:39:59;4.70;;;1.90;;
42886;SDS011;29032;56.028;92.904;2023-03-01T20:45:03;3.33;;;2.20;;
42886;SDS011;29032;56.028;92.904;2023-03-01T20:50:06;3.23;;;2.80;;
42886;SDS011;29032;56.028;92.904;2023-03-01T20:55:09;4.13;;;3.03;;
42886;SDS011;29032;56.028;92.904;2023-03-01T21:00:14;3.57;;;2.40;;
42886;SDS011;29032;56.028;92.904;2023-03-01T21:05:16;5.97;;;2.90;;
42886;SDS011;29032;56.028;92.904;2023-03-01T21:10:18;6.40;;;3.00;;
42886;SDS011;29032;56.028;92.904;2023-03-01T21:15:22;8.03;;;3.60;;
42886;SDS011;29032;56.028;92.904;2023-03-01T21:20:24;6.57;;;3.53;;
42886;SDS011;29032;56.028;92.904;2023-03-01T21:25:28;5.10;;;2.47;;
42886;SDS011;29032;56.028;92.904;2023-03-01T21:30:31;4.17;;;2.37;;
42886;SDS011;29032;56.028;92.904;2023-03-01T21:35:35;6.43;;;2.40;;
42886;SDS011;29032;56.028;92.904;2023-03-01T21:40:37;4.43;;;2.57;;
42886;SDS011;29032;56.028;92.904;2023-03-01T21:45:40;4.63;;;2.20;;
42886;SDS011;29032;56.028;92.904;2023-03-01T21:50:42;4.47;;;2.40;;
42886;SDS011;29032;56.028;92.904;2023-03-01T21:55:45;4.43;;;2.20;;
42886;SDS011;29032;56.028;92.904;2023-03-01T22:00:49;3.40;;;1.90;;
42886;SDS011;29032;56.028;92.904;2023-03-01T22:05:54;2.77;;;1.73;;
42886;SDS011;29032;56.028;92.904;2023-03-01T22:10:56;2.37;;;1.80;;
42886;SDS011;29032;56.028;92.904;2023-03-01T22:16:00;3.50;;;1.97;;
42886;SDS011;29032;56.028;92.904;2023-03-01T22:21:02;3.77;;;1.93;;
42886;SDS011;29032;56.028;92.904;2023-03-01T22:26:05;3.73;;;2.30;;
42886;SDS011;29032;56.028;92.904;2023-03-01T22:31:10;3.40;;;2.20;;
42886;SDS011;29032;56.028;92.904;2023-03-01T22:36:12;2.23;;;1.60;;
42886;SDS011;29032;56.028;92.904;2023-03-01T22:41:14;2.80;;;1.60;;
42886;SDS011;29032;56.028;92.904;2023-03-01T22:46:18;3.37;;;1.73;;
42886;SDS011;29032;56.028;92.904;2023-03-01T22:51:22;4.30;;;2.07;;
42886;SDS011;29032;56.028;92.904;2023-03-01T22:56:26;1.93;;;1.60;;
42886;SDS011;29032;56.028;92.904;2023-03-01T23:01:30;4.20;;;1.93;;
42886;SDS011;29032;56.028;92.904;2023-03-01T23:06:33;2.90;;;1.40;;
42886;SDS011;29032;56.028;92.904;2023-03-01T23:11:35;3.77;;;1.53;;
42886;SDS011;29032;56.028;92.904;2023-03-01T23:16:38;1.50;;;1.40;;
42886;SDS011;29032;56.028;92.904;2023-03-01T23:21:41;3.87;;;1.50;;
42886;SDS011;29032;56.028;92.904;2023-03-01T23:26:43;1.93;;;1.40;;
42886;SDS011;29032;56.028;92.904;2023-03-01T23:31:47;3.93;;;1.40;;
42886;SDS011;29032;56.028;92.904;2023-03-01T23:36:50;4.03;;;1.40;;
42886;SDS011;29032;56.028;92.904;2023-03-01T23:41:52;2.30;;;1.40;;
42886;SDS011;29032;56.028;92.904;2023-03-01T23:46:56;4.00;;;1.60;;
42886;SDS011;29032;56.028;92.904;2023-03-01T23:51:58;2.60;;;1.60;;
42886;SDS011;29032;56.028;92.904;2023-03-01T23:57:00;5.20;;;2.80;;
